Time;durP1;ratioP1;P1;durP2;ratioP2;P2;SDS_P1;SDS_P2;PMS_P1;PMS_P2;Temp;Humidity;BMP_temperature;BMP_pressure;BME280_temperature;BME280_humidity;BME280_pressure;Samples;Min_cycle;Max_cycle;Signal;HPM_P1;HPM_P2
2022/09/26 00:01:09;;;;;;;15.67;8.97;;;12.20;94.70;;;;;;5008347;28;20439;-71
2022/09/26 00:03:34;;;;;;;19.10;8.70;;;12.10;94.60;;;;;;5002176;28;20517;-71
2022/09/26 00:06:07;;;;;;;13.80;7.40;;;12.10;94.70;;;;;;5005392;28;20520;-71
2022/09/26 00:08:34;;;;;;;15.80;9.13;;;12.20;94.50;;;;;;4984407;28;20186;-72
2022/09/26 00:11:01;;;;;;;16.03;8.77;;;12.20;94.30;;;;;;5008981;28;20943;-72
2022/09/26 00:13:29;;;;;;;20.10;9.13;;;12.20;94.50;;;;;;5004399;28;20487;-72
2022/09/26 00:15:55;;;;;;;13.77;8.07;;;12.20;94.50;;;;;;4987154;28;20484;-72
2022/09/26 00:18:22;;;;;;;24.30;9.10;;;12.20;94.40;;;;;;4988392;28;20432;-71
2022/09/26 00:20:48;;;;;;;15.50;8.63;;;12.20;94.30;;;;;;5007138;28;20524;-71
2022/09/26 00:23:14;;;;;;;15.57;8.30;;;12.20;94.30;;;;;;5005797;28;20508;-71
2022/09/26 00:25:50;;;;;;;16.80;8.63;;;12.30;94.30;;;;;;5006670;28;20194;-70
2022/09/26 00:28:17;;;;;;;17.07;9.27;;;12.20;94.30;;;;;;5004875;28;20494;-70
2022/09/26 00:30:43;;;;;;;16.30;8.20;;;12.20;94.30;;;;;;4987973;28;20428;-70
2022/09/26 00:33:10;;;;;;;17.53;8.87;;;12.20;94.40;;;;;;5010388;28;20807;-72
2022/09/26 00:35:35;;;;;;;14.27;8.07;;;12.20;94.50;;;;;;5010515;28;20588;-71
2022/09/26 00:38:01;;;;;;;17.73;8.57;;;12.10;94.60;;;;;;5006560;28;20548;-71
2022/09/26 00:40:27;;;;;;;16.67;8.70;;;12.10;94.70;;;;;;5011742;28;20239;-71
2022/09/26 00:42:53;;;;;;;15.50;8.47;;;12.00;94.70;;;;;;5010194;28;20663;-71
2022/09/26 00:45:20;;;;;;;23.80;10.00;;;12.00;94.70;;;;;;5006859;28;20516;-69
2022/09/26 00:47:56;;;;;;;17.70;8.93;;;11.90;94.60;;;;;;5003511;28;20461;-70
2022/09/26 00:50:27;;;;;;;14.90;8.20;;;11.90;94.80;;;;;;5009400;28;20826;-70
2022/09/26 00:53:10;;;;;;;14.13;9.00;;;11.90;94.80;;;;;;5013236;28;20568;-70
2022/09/26 00:55:39;;;;;;;18.10;9.23;;;11.90;94.80;;;;;;5008585;28;20583;-70
2022/09/26 00:58:31;;;;;;;16.13;7.50;;;11.80;94.80;;;;;;5006820;28;20472;-72
2022/09/26 01:00:58;;;;;;;17.20;7.87;;;11.80;94.90;;;;;;5005442;28;20425;-71
2022/09/26 01:03:25;;;;;;;14.87;8.40;;;11.70;95.10;;;;;;5006017;28;20427;-71
2022/09/26 01:05:51;;;;;;;17.87;9.73;;;11.60;95.20;;;;;;5006725;28;20466;-72
2022/09/26 01:08:22;;;;;;;12.90;8.10;;;11.60;95.30;;;;;;5002787;28;20444;-70
2022/09/26 01:10:49;;;;;;;18.37;9.07;;;11.50;95.50;;;;;;4995822;28;20190;-71
2022/09/26 01:13:15;;;;;;;18.27;8.70;;;11.50;95.50;;;;;;5011784;28;20488;-72
2022/09/26 01:15:41;;;;;;;20.73;9.93;;;11.50;95.50;;;;;;5005777;28;20477;-70
2022/09/26 01:18:07;;;;;;;19.00;8.80;;;11.40;95.50;;;;;;5002280;28;20807;-71
2022/09/26 01:20:35;;;;;;;17.07;9.00;;;11.40;95.60;;;;;;5002984;28;20218;-70
2022/09/26 01:23:10;;;;;;;15.43;9.33;;;11.40;95.60;;;;;;5009853;28;20412;-72
2022/09/26 01:26:00;;;;;;;14.70;7.87;;;11.40;95.70;;;;;;5002226;28;20511;-73
2022/09/26 01:28:44;;;;;;;17.20;9.23;;;11.40;95.60;;;;;;5009508;28;20997;-72
2022/09/26 01:31:28;;;;;;;14.80;8.60;;;11.40;95.40;;;;;;5012784;28;20482;-72
2022/09/26 01:34:01;;;;;;;17.43;9.57;;;11.30;95.40;;;;;;5004001;28;20440;-72
2022/09/26 01:36:38;;;;;;;16.07;8.37;;;11.40;95.60;;;;;;5001297;28;20477;-73
2022/09/26 01:39:09;;;;;;;18.83;10.40;;;11.40;95.50;;;;;;5012166;28;20794;-72
2022/09/26 01:41:53;;;;;;;15.47;8.80;;;11.20;95.60;;;;;;5011656;28;20927;-71
2022/09/26 01:44:31;;;;;;;15.60;8.27;;;11.20;95.80;;;;;;5004717;28;20472;-72
2022/09/26 01:47:15;;;;;;;17.13;9.50;;;11.30;95.80;;;;;;5007426;28;20472;-72
2022/09/26 01:50:05;;;;;;;18.83;9.27;;;11.20;95.80;;;;;;5007254;28;20420;-72
2022/09/26 01:52:38;;;;;;;16.97;9.90;;;11.10;95.70;;;;;;5009252;28;20409;-71
2022/09/26 01:55:38;;;;;;;20.13;10.07;;;11.10;95.80;;;;;;5010431;28;20456;-71
2022/09/26 01:58:11;;;;;;;14.90;7.53;;;11.10;95.90;;;;;;5009478;28;20456;-71
2022/09/26 02:00:40;;;;;;;16.00;8.10;;;11.20;96.00;;;;;;5011020;28;20786;-72
2022/09/26 02:03:12;;;;;;;18.33;8.20;;;11.20;95.90;;;;;;5013185;28;20429;-72
2022/09/26 02:05:43;;;;;;;15.67;8.40;;;11.20;95.90;;;;;;5019402;28;20452;-71
2022/09/26 02:08:39;;;;;;;19.00;9.27;;;11.20;95.90;;;;;;5017503;28;20809;-73
2022/09/26 02:11:17;;;;;;;17.93;10.07;;;11.20;96.00;;;;;;5005523;28;20414;-71
2022/09/26 02:13:54;;;;;;;13.30;8.03;;;11.20;96.00;;;;;;5000385;28;20423;-72
2022/09/26 02:16:24;;;;;;;16.77;8.40;;;11.20;95.80;;;;;;5011318;28;20483;-72
2022/09/26 02:18:55;;;;;;;18.73;8.90;;;11.20;95.60;;;;;;5009951;28;20916;-71
2022/09/26 02:21:23;;;;;;;15.40;9.00;;;11.30;95.40;;;;;;5002343;28;20528;-70
2022/09/26 02:23:50;;;;;;;16.70;7.97;;;11.20;95.30;;;;;;5010634;28;20452;-71
2022/09/26 02:26:16;;;;;;;17.37;8.50;;;11.20;95.10;;;;;;5001234;28;20912;-72
2022/09/26 02:28:42;;;;;;;12.53;7.30;;;11.20;95.00;;;;;;5001096;28;20526;-71
2022/09/26 02:31:10;;;;;;;13.70;7.93;;;11.20;94.80;;;;;;5009150;28;20428;-71
2022/09/26 02:33:35;;;;;;;15.30;7.53;;;11.10;94.80;;;;;;5005256;28;20433;-71
2022/09/26 02:36:07;;;;;;;11.80;7.83;;;11.10;94.80;;;;;;5006942;28;20953;-71
2022/09/26 02:38:33;;;;;;;17.53;8.87;;;11.10;94.90;;;;;;5007807;28;20201;-71
2022/09/26 02:41:28;;;;;;;13.70;7.50;;;11.00;94.90;;;;;;5009703;28;20523;-70
2022/09/26 02:44:05;;;;;;;16.73;9.00;;;10.90;95.10;;;;;;5000544;28;20434;-73
2022/09/26 02:46:59;;;;;;;11.80;7.30;;;10.90;95.30;;;;;;5005632;28;20463;-71
2022/09/26 02:49:36;;;;;;;16.30;9.13;;;11.00;95.40;;;;;;5008523;28;20432;-72
2022/09/26 02:52:10;;;;;;;17.33;9.00;;;11.00;95.30;;;;;;5006555;28;20413;-71
2022/09/26 02:54:56;;;;;;;14.27;7.90;;;11.00;95.20;;;;;;5005198;28;20507;-72
2022/09/26 02:57:39;;;;;;;16.77;8.60;;;11.00;95.00;;;;;;5007176;28;20981;-71
2022/09/26 03:00:07;;;;;;;18.77;7.93;;;11.00;95.00;;;;;;5006539;28;20426;-70
2022/09/26 03:02:52;;;;;;;15.43;9.23;;;11.10;95.00;;;;;;5004792;28;20930;-70
2022/09/26 03:05:22;;;;;;;16.70;7.67;;;11.10;94.90;;;;;;5004361;28;20860;-72
2022/09/26 03:07:59;;;;;;;16.50;9.00;;;11.10;94.90;;;;;;4998157;28;20838;-70
2022/09/26 03:10:27;;;;;;;16.60;8.03;;;11.20;94.80;;;;;;4997969;28;20424;-71
2022/09/26 03:12:56;;;;;;;14.97;7.77;;;11.20;94.60;;;;;;4986558;28;20460;-71
2022/09/26 03:15:23;;;;;;;13.40;8.27;;;11.20;94.50;;;;;;5003289;28;20479;-72
2022/09/26 03:17:53;;;;;;;14.53;8.37;;;11.20;94.40;;;;;;5006068;28;20456;-70
2022/09/26 03:20:21;;;;;;;15.40;7.63;;;11.20;94.50;;;;;;5001290;28;21229;-72
2022/09/26 03:22:47;;;;;;;16.10;8.80;;;11.10;94.50;;;;;;5008559;28;20417;-72
2022/09/26 03:25:20;;;;;;;12.30;6.87;;;11.10;94.50;;;;;;5004978;28;20441;-71
2022/09/26 03:27:46;;;;;;;12.20;7.60;;;11.10;94.60;;;;;;5000156;28;20947;-71
2022/09/26 03:30:14;;;;;;;13.90;7.90;;;11.20;94.60;;;;;;5004893;28;20439;-72
2022/09/26 03:32:40;;;;;;;11.77;7.50;;;11.20;94.50;;;;;;4985610;28;20446;-71
2022/09/26 03:35:07;;;;;;;11.23;6.50;;;11.20;94.40;;;;;;5002602;28;21161;-71
2022/09/26 03:37:35;;;;;;;11.60;7.70;;;11.20;94.10;;;;;;5000669;28;20489;-72
2022/09/26 03:40:07;;;;;;;11.87;7.57;;;11.20;93.90;;;;;;5008081;28;20546;-70
2022/09/26 03:42:33;;;;;;;8.47;6.17;;;11.20;93.90;;;;;;5005066;28;20429;-70
2022/09/26 03:44:59;;;;;;;10.40;6.90;;;11.20;93.70;;;;;;5009709;28;20479;-70
2022/09/26 03:47:25;;;;;;;13.93;6.90;;;11.20;93.70;;;;;;4998034;28;20964;-71
2022/09/26 03:49:51;;;;;;;13.33;6.33;;;11.10;93.70;;;;;;5007468;28;20436;-71
2022/09/26 03:52:17;;;;;;;9.37;5.63;;;11.10;93.80;;;;;;5009063;28;20429;-71
2022/09/26 03:54:43;;;;;;;11.03;6.50;;;11.20;93.90;;;;;;5007253;28;20803;-70
2022/09/26 03:57:11;;;;;;;10.50;6.63;;;11.10;93.80;;;;;;4996726;28;20701;-70
2022/09/26 03:59:37;;;;;;;13.33;7.33;;;11.10;93.50;;;;;;5007080;28;20470;-71
2022/09/26 04:02:04;;;;;;;10.40;7.10;;;11.00;93.60;;;;;;5008799;28;20412;-71
2022/09/26 04:04:31;;;;;;;12.50;6.80;;;10.90;93.90;;;;;;5008372;28;20463;-70
2022/09/26 04:06:56;;;;;;;13.00;6.57;;;11.00;94.10;;;;;;5008378;28;20464;-71
2022/09/26 04:09:23;;;;;;;13.43;6.60;;;11.00;94.10;;;;;;5026376;28;20416;-70
2022/09/26 04:11:49;;;;;;;10.30;6.17;;;11.00;94.10;;;;;;5012146;28;20498;-71
2022/09/26 04:14:16;;;;;;;15.47;7.17;;;11.00;94.30;;;;;;5009570;28;20516;-70
2022/09/26 04:16:42;;;;;;;13.27;6.80;;;11.10;94.10;;;;;;5003928;28;20460;-70
2022/09/26 04:19:07;;;;;;;8.23;5.40;;;11.00;94.20;;;;;;5003026;28;20436;-71
2022/09/26 04:21:34;;;;;;;9.53;6.30;;;11.10;94.10;;;;;;5006446;28;20437;-71
2022/09/26 04:24:00;;;;;;;8.97;6.00;;;11.10;94.00;;;;;;5004717;28;20230;-70
2022/09/26 04:26:26;;;;;;;7.77;5.63;;;11.00;94.00;;;;;;5005558;28;20927;-71
2022/09/26 04:28:54;;;;;;;10.87;6.00;;;11.00;94.10;;;;;;5005828;28;20907;-72
2022/09/26 04:31:20;;;;;;;12.63;6.30;;;11.00;94.20;;;;;;5005526;28;20649;-70
2022/09/26 04:33:46;;;;;;;13.03;6.03;;;11.00;94.30;;;;;;5008296;28;20923;-71
2022/09/26 04:36:13;;;;;;;9.10;5.90;;;11.00;94.20;;;;;;5001405;28;20503;-72
2022/09/26 04:38:39;;;;;;;11.17;6.27;;;11.00;94.00;;;;;;5006999;28;20428;-71
2022/09/26 04:41:10;;;;;;;10.70;6.80;;;11.00;93.90;;;;;;5008866;28;20425;-71
2022/09/26 04:43:37;;;;;;;8.93;5.30;;;11.00;93.70;;;;;;5003356;28;20433;-72
2022/09/26 04:46:08;;;;;;;11.20;5.63;;;10.90;93.70;;;;;;5002199;28;20472;-71
2022/09/26 04:48:34;;;;;;;9.73;5.10;;;10.90;93.70;;;;;;4999539;28;20436;-71
2022/09/26 04:51:04;;;;;;;10.13;5.87;;;10.90;93.70;;;;;;5006240;28;20977;-70
2022/09/26 04:53:30;;;;;;;10.40;5.97;;;10.90;93.60;;;;;;5003998;28;20537;-71
2022/09/26 04:55:55;;;;;;;12.93;6.50;;;10.90;93.60;;;;;;5007159;28;21117;-72
2022/09/26 04:58:21;;;;;;;10.73;5.70;;;10.80;93.70;;;;;;5001898;28;20193;-71
2022/09/26 05:00:48;;;;;;;18.87;5.90;;;10.80;93.60;;;;;;5004537;28;20258;-71
2022/09/26 05:03:15;;;;;;;12.03;5.33;;;10.80;93.60;;;;;;5006148;28;20273;-71
2022/09/26 05:05:43;;;;;;;9.03;5.27;;;10.90;93.60;;;;;;5004431;28;20422;-71
2022/09/26 05:08:10;;;;;;;8.57;5.03;;;10.80;93.50;;;;;;5001729;28;20456;-71
2022/09/26 05:10:37;;;;;;;9.97;5.83;;;10.80;93.50;;;;;;5008094;28;20433;-71
2022/09/26 05:13:03;;;;;;;11.00;4.43;;;10.80;93.50;;;;;;5002938;28;20443;-71
2022/09/26 05:15:29;;;;;;;11.10;5.30;;;10.80;93.40;;;;;;4986050;28;20457;-74
2022/09/26 05:17:59;;;;;;;8.80;5.07;;;10.70;93.30;;;;;;5003790;28;20221;-73
2022/09/26 05:20:30;;;;;;;8.30;5.10;;;10.60;93.30;;;;;;4984384;28;20468;-70
2022/09/26 05:23:02;;;;;;;11.17;4.83;;;10.60;93.40;;;;;;5005711;28;21181;-71
2022/09/26 05:28:15;;;;;;;14.30;5.83;;;10.50;93.80;;;;;;5007748;28;20440;-72
2022/09/26 05:30:42;;;;;;;8.73;5.97;;;10.40;94.00;;;;;;5011320;28;20424;-72
2022/09/26 05:33:08;;;;;;;9.40;6.00;;;10.50;94.20;;;;;;4992892;28;20563;-70
2022/09/26 05:35:34;;;;;;;10.47;6.77;;;10.50;94.30;;;;;;5009465;28;20480;-71
2022/09/26 05:38:03;;;;;;;14.23;6.37;;;10.50;94.20;;;;;;5010600;28;20218;-73
2022/09/26 05:43:14;;;;;;;8.43;5.37;;;10.50;94.30;;;;;;5013396;28;20918;-71
2022/09/26 05:45:40;;;;;;;10.07;6.40;;;10.60;94.30;;;;;;5010556;28;20908;-71
2022/09/26 05:48:06;;;;;;;7.57;4.90;;;10.60;94.10;;;;;;5010329;28;20476;-71
2022/09/26 05:50:32;;;;;;;13.60;6.07;;;10.70;94.10;;;;;;5012655;28;20198;-72
2022/09/26 05:52:59;;;;;;;8.90;6.20;;;10.70;94.00;;;;;;5009619;28;20192;-73
2022/09/26 05:55:25;;;;;;;8.70;5.17;;;10.70;94.10;;;;;;5010975;28;20476;-73
2022/09/26 05:57:52;;;;;;;7.73;5.13;;;10.60;93.80;;;;;;5007396;28;20564;-71
2022/09/26 06:00:18;;;;;;;10.90;5.33;;;10.70;94.00;;;;;;5008690;28;20555;-72
2022/09/26 06:02:44;;;;;;;10.30;5.20;;;10.90;93.80;;;;;;5007753;28;20425;-70
2022/09/26 06:05:10;;;;;;;12.90;6.10;;;11.00;93.70;;;;;;5001370;28;20486;-71
2022/09/26 06:07:35;;;;;;;7.27;5.17;;;11.00;93.40;;;;;;5004340;28;20725;-71
2022/09/26 06:10:04;;;;;;;18.13;6.60;;;11.10;93.20;;;;;;4990897;28;20181;-71
2022/09/26 06:12:30;;;;;;;26.87;8.87;;;11.20;92.90;;;;;;5011044;28;20656;-73
2022/09/26 06:14:56;;;;;;;21.80;6.50;;;11.30;92.30;;;;;;5006610;28;20911;-71
2022/09/26 06:17:22;;;;;;;15.53;7.53;;;11.30;92.10;;;;;;4995937;28;20465;-71
2022/09/26 06:19:48;;;;;;;13.57;5.40;;;11.40;92.10;;;;;;4986942;28;20424;-71
2022/09/26 06:22:14;;;;;;;12.17;5.90;;;11.40;92.00;;;;;;5006188;28;20424;-72
2022/09/26 06:24:39;;;;;;;9.87;5.70;;;11.50;91.60;;;;;;4990479;28;20285;-70
2022/09/26 06:27:05;;;;;;;12.23;5.07;;;11.50;91.00;;;;;;4990147;28;20209;-70
2022/09/26 06:29:31;;;;;;;6.47;4.47;;;11.50;90.50;;;;;;4990358;28;20209;-70
2022/09/26 06:31:56;;;;;;;7.87;5.20;;;11.70;90.00;;;;;;5010329;28;20708;-70
2022/09/26 06:34:22;;;;;;;7.70;4.90;;;11.60;89.30;;;;;;5007902;28;20429;-72
2022/09/26 06:36:48;;;;;;;7.90;4.93;;;11.60;89.50;;;;;;4999774;28;20209;-73
2022/09/26 06:39:13;;;;;;;6.47;4.90;;;11.60;90.00;;;;;;5004359;28;20186;-73
2022/09/26 06:41:39;;;;;;;9.57;4.07;;;11.70;89.90;;;;;;5005378;28;20559;-74
2022/09/26 06:44:05;;;;;;;9.10;3.87;;;11.70;89.20;;;;;;5007592;28;20623;-73
2022/09/26 06:46:30;;;;;;;7.43;4.27;;;11.70;89.00;;;;;;5012027;28;20484;-73
2022/09/26 06:48:56;;;;;;;7.23;4.37;;;11.80;88.70;;;;;;5010664;28;20193;-74
2022/09/26 06:51:22;;;;;;;8.47;4.70;;;11.90;88.30;;;;;;5006453;28;20194;-72
2022/09/26 06:53:48;;;;;;;10.67;5.67;;;12.00;88.10;;;;;;5007650;28;20459;-74
2022/09/26 06:56:14;;;;;;;7.43;4.90;;;12.00;88.00;;;;;;4987207;28;21056;-73
2022/09/26 06:58:40;;;;;;;9.20;5.43;;;12.00;88.10;;;;;;5002219;28;20272;-73
2022/09/26 07:01:06;;;;;;;9.67;5.77;;;12.00;88.10;;;;;;5001108;28;20553;-74
2022/09/26 07:03:32;;;;;;;13.90;6.10;;;12.10;88.70;;;;;;5006035;28;20975;-73
2022/09/26 07:05:57;;;;;;;6.60;4.53;;;12.10;88.60;;;;;;4999167;28;20441;-74
2022/09/26 07:08:24;;;;;;;11.33;5.67;;;12.10;88.70;;;;;;5001143;28;20187;-74
2022/09/26 07:10:50;;;;;;;11.30;5.17;;;12.10;88.10;;;;;;5004882;28;20555;-73
2022/09/26 07:13:16;;;;;;;10.10;5.23;;;12.20;88.40;;;;;;5006753;28;20507;-74
2022/09/26 07:15:46;;;;;;;14.47;4.20;;;12.30;87.70;;;;;;4990966;28;20461;-74
2022/09/26 07:18:12;;;;;;;7.87;3.87;;;12.40;86.90;;;;;;5001463;28;20441;-73
2022/09/26 07:20:39;;;;;;;7.90;5.03;;;12.40;86.60;;;;;;5004020;28;20444;-74
2022/09/26 07:23:09;;;;;;;15.17;5.37;;;12.50;86.90;;;;;;5001192;28;20453;-73
2022/09/26 07:25:38;;;;;;;6.20;4.20;;;12.50;86.20;;;;;;5009864;28;20778;-74
2022/09/26 07:28:08;;;;;;;13.37;4.70;;;12.40;86.30;;;;;;4980176;28;20468;-74
2022/09/26 07:30:34;;;;;;;13.17;5.27;;;12.50;86.60;;;;;;5006509;28;20448;-73
2022/09/26 07:33:02;;;;;;;7.63;4.20;;;12.60;86.20;;;;;;5006452;28;20441;-71
2022/09/26 07:35:28;;;;;;;8.97;4.77;;;12.60;85.60;;;;;;5001220;28;20198;-71
2022/09/26 07:37:54;;;;;;;6.23;4.67;;;12.70;85.60;;;;;;4997603;28;20467;-69
2022/09/26 07:40:21;;;;;;;7.13;4.17;;;12.70;85.30;;;;;;5005306;28;20421;-71
2022/09/26 07:42:47;;;;;;;6.67;3.80;;;12.70;85.50;;;;;;5001432;28;20182;-71
2022/09/26 07:45:13;;;;;;;7.70;4.20;;;12.80;85.70;;;;;;5003624;28;20428;-72
2022/09/26 07:50:23;;;;;;;7.77;4.33;;;12.90;84.60;;;;;;5009222;28;20413;-70
2022/09/26 07:52:49;;;;;;;6.50;3.87;;;12.90;84.60;;;;;;5006167;28;20422;-72
2022/09/26 07:55:21;;;;;;;13.80;4.50;;;13.00;84.30;;;;;;5008713;28;20224;-70
2022/09/26 07:57:48;;;;;;;5.43;3.73;;;13.00;83.80;;;;;;5005845;28;20460;-72
2022/09/26 08:00:17;;;;;;;6.90;3.83;;;13.00;83.60;;;;;;5000166;28;20418;-72
2022/09/26 08:02:45;;;;;;;6.13;3.87;;;13.10;83.80;;;;;;5003582;28;20969;-71
2022/09/26 08:05:18;;;;;;;6.47;4.40;;;13.10;83.70;;;;;;5001164;28;20426;-72
2022/09/26 08:07:45;;;;;;;6.57;4.10;;;13.10;83.70;;;;;;4999448;28;20838;-72
2022/09/26 08:10:19;;;;;;;7.27;4.00;;;13.20;84.10;;;;;;5000088;28;20851;-72
2022/09/26 08:12:46;;;;;;;10.70;4.67;;;13.30;84.00;;;;;;4985378;28;20548;-72
2022/09/26 08:15:12;;;;;;;7.47;4.00;;;13.40;83.30;;;;;;5003112;28;20925;-72
2022/09/26 08:17:38;;;;;;;10.83;4.00;;;13.40;83.40;;;;;;5000712;28;20886;-71
2022/09/26 08:20:04;;;;;;;11.77;4.17;;;13.50;83.30;;;;;;5006259;28;20533;-72
2022/09/26 08:22:30;;;;;;;7.73;3.90;;;13.40;83.10;;;;;;5002607;28;20425;-70
2022/09/26 08:24:57;;;;;;;9.40;3.80;;;13.50;83.10;;;;;;4984386;28;20425;-71
2022/09/26 08:27:23;;;;;;;7.63;4.47;;;13.50;83.10;;;;;;5005234;28;20470;-71
2022/09/26 08:29:49;;;;;;;6.57;4.03;;;13.50;83.00;;;;;;5003615;28;20421;-72
2022/09/26 08:32:19;;;;;;;7.77;4.33;;;13.60;82.80;;;;;;5002216;28;20425;-72
2022/09/26 08:34:46;;;;;;;7.80;4.70;;;13.80;82.50;;;;;;5004133;28;20465;-71
2022/09/26 08:37:13;;;;;;;5.87;4.20;;;14.00;81.70;;;;;;4999138;28;21032;-72
2022/09/26 08:39:38;;;;;;;7.57;4.13;;;14.00;80.20;;;;;;5007004;28;20487;-72
2022/09/26 08:42:10;;;;;;;7.17;3.97;;;14.10;80.50;;;;;;4991388;28;20425;-72
2022/09/26 08:44:56;;;;;;;8.77;4.20;;;14.20;79.60;;;;;;5009415;28;20199;-73
2022/09/26 08:47:45;;;;;;;5.60;3.83;;;14.10;79.70;;;;;;4997854;28;20485;-72
2022/09/26 08:50:32;;;;;;;7.40;3.80;;;14.20;79.70;;;;;;4999591;28;20950;-71
2022/09/26 08:52:57;;;;;;;6.30;3.80;;;14.30;79.50;;;;;;4997738;28;20501;-71
2022/09/26 08:55:26;;;;;;;6.47;4.30;;;14.20;79.20;;;;;;5007122;28;20908;-73
2022/09/26 08:57:57;;;;;;;8.23;4.50;;;14.10;79.90;;;;;;5004916;28;20209;-72
2022/09/26 09:00:24;;;;;;;7.47;4.03;;;14.20;80.00;;;;;;4988016;28;20418;-71
2022/09/26 09:03:31;;;;;;;5.20;3.70;;;14.20;79.30;;;;;;5007510;28;20451;-70
2022/09/26 09:06:13;;;;;;;6.00;3.70;;;14.20;79.00;;;;;;4912845;29;20860;-71
2022/09/26 09:08:44;;;;;;;4.27;3.40;;;14.30;77.70;;;;;;4898213;29;20429;-72
2022/09/26 09:11:28;;;;;;;4.63;3.50;;;14.20;77.10;;;;;;4909738;29;20430;-71
2022/09/26 09:14:36;;;;;;;5.50;3.80;;;14.20;76.80;;;;;;4912608;29;20867;-72
2022/09/26 09:17:23;;;;;;;11.43;3.33;;;14.20;77.30;;;;;;4877617;29;20473;-72
2022/09/26 09:20:16;;;;;;;5.33;3.87;;;14.20;77.30;;;;;;4909503;29;20799;-69
2022/09/26 09:23:12;;;;;;;8.30;3.40;;;14.20;75.80;;;;;;4913392;29;20461;-71
2022/09/26 09:25:56;;;;;;;5.37;2.90;;;14.30;74.90;;;;;;4910643;29;20421;-72
2022/09/26 09:28:43;;;;;;;5.67;3.40;;;14.40;75.20;;;;;;4914606;29;20496;-71
2022/09/26 09:31:13;;;;;;;7.10;3.30;;;14.40;75.50;;;;;;4909160;29;20413;-70
2022/09/26 09:33:58;;;;;;;5.43;3.03;;;14.50;75.70;;;;;;4913539;29;20518;-72
2022/09/26 09:36:30;;;;;;;7.97;3.70;;;14.60;75.80;;;;;;4912225;29;20588;-71
2022/09/26 09:39:03;;;;;;;7.13;3.60;;;14.70;74.60;;;;;;4896634;29;20515;-71
2022/09/26 09:41:36;;;;;;;8.03;3.30;;;14.80;74.20;;;;;;4914712;29;20481;-72
2022/09/26 09:44:09;;;;;;;20.30;3.60;;;14.90;74.60;;;;;;5005549;28;20933;-71
2022/09/26 09:46:39;;;;;;;5.67;3.70;;;15.00;74.50;;;;;;5004660;28;20457;-72
2022/09/26 09:49:08;;;;;;;5.50;3.97;;;15.10;73.60;;;;;;5011000;28;20508;-72
2022/09/26 09:51:52;;;;;;;5.70;2.90;;;15.10;73.00;;;;;;5007549;28;20428;-72
2022/09/26 09:54:47;;;;;;;6.60;3.73;;;15.30;72.30;;;;;;5007224;28;20496;-71
2022/09/26 09:57:29;;;;;;;4.27;3.20;;;15.40;72.10;;;;;;5001220;28;20461;-71
2022/09/26 10:00:10;;;;;;;5.43;3.17;;;15.60;70.80;;;;;;5000399;28;20410;-72
2022/09/26 10:02:58;;;;;;;4.60;2.73;;;15.60;70.40;;;;;;5006308;28;21331;-71
2022/09/26 10:05:46;;;;;;;5.20;3.20;;;15.60;69.70;;;;;;4989536;28;21061;-73
2022/09/26 10:08:31;;;;;;;4.43;2.73;;;15.70;71.30;;;;;;5004116;28;20487;-72
2022/09/26 10:11:28;;;;;;;7.03;3.17;;;16.00;71.00;;;;;;4999671;28;20470;-72
2022/09/26 10:13:57;;;;;;;3.43;2.73;;;16.00;69.70;;;;;;4984426;28;20436;-71
2022/09/26 10:16:23;;;;;;;6.57;3.30;;;16.00;68.60;;;;;;5006903;28;20480;-71
2022/09/26 10:19:02;;;;;;;4.83;2.50;;;15.80;68.50;;;;;;4998419;28;21014;-72
2022/09/26 10:21:34;;;;;;;4.03;2.60;;;15.70;68.80;;;;;;5006015;28;20523;-71
2022/09/26 10:24:03;;;;;;;3.43;2.80;;;15.60;69.50;;;;;;5007632;28;20435;-72
2022/09/26 10:26:33;;;;;;;5.63;3.00;;;15.50;69.20;;;;;;5000783;28;20457;-72
2022/09/26 10:29:22;;;;;;;5.17;2.73;;;15.50;69.40;;;;;;5006859;28;20420;-72
2022/09/26 10:31:59;;;;;;;4.60;2.73;;;15.60;69.40;;;;;;5003725;28;20420;-71
2022/09/26 10:34:32;;;;;;;4.53;2.50;;;15.80;68.50;;;;;;5009953;28;20972;-71
2022/09/26 10:37:17;;;;;;;5.83;2.60;;;16.10;67.20;;;;;;4986591;28;20535;-71
2022/09/26 10:42:37;;;;;;;3.37;2.53;;;16.50;66.70;;;;;;5003770;28;20436;-71
2022/09/26 10:45:14;;;;;;;3.20;2.60;;;16.60;66.10;;;;;;5004105;28;20938;-73
2022/09/26 10:47:45;;;;;;;3.83;2.63;;;16.60;66.00;;;;;;5003292;28;20452;-72
2022/09/26 10:50:16;;;;;;;8.13;2.73;;;16.70;64.80;;;;;;4977252;28;20425;-71
2022/09/26 10:52:45;;;;;;;7.20;2.70;;;16.70;65.70;;;;;;4993124;28;20985;-72
2022/09/26 10:55:23;;;;;;;4.73;2.60;;;16.50;66.70;;;;;;5005034;28;20557;-72
2022/09/26 10:57:50;;;;;;;4.17;2.77;;;16.50;67.50;;;;;;5009705;28;20466;-72
2022/09/26 11:00:38;;;;;;;6.87;3.50;;;16.60;66.90;;;;;;4999538;28;20418;-72
2022/09/26 11:03:06;;;;;;;3.10;2.20;;;16.70;66.40;;;;;;4998052;28;20443;-72
2022/09/26 11:08:23;;;;;;;4.40;2.23;;;16.50;63.90;;;;;;5008199;28;20495;-72
2022/09/26 11:10:51;;;;;;;8.87;2.50;;;16.60;63.80;;;;;;5004838;28;20920;-71
2022/09/26 11:13:31;;;;;;;7.50;2.30;;;16.60;63.80;;;;;;5005624;28;20449;-71
2022/09/26 11:16:00;;;;;;;3.40;2.13;;;16.60;64.10;;;;;;5007783;28;20982;-72
2022/09/26 11:18:41;;;;;;;4.60;2.07;;;16.30;67.90;;;;;;5001065;28;20425;-71
2022/09/26 11:21:35;;;;;;;3.20;2.33;;;15.90;70.20;;;;;;5005700;28;20448;-71
2022/09/26 11:24:28;;;;;;;3.90;2.37;;;15.70;69.40;;;;;;4998096;28;20413;-71
2022/09/26 11:27:20;;;;;;;3.60;1.93;;;15.70;70.20;;;;;;4961182;28;20500;-72
2022/09/26 11:30:01;;;;;;;5.57;2.43;;;16.00;70.10;;;;;;5009818;28;20440;-71
2022/09/26 11:32:32;;;;;;;3.70;2.77;;;16.10;68.90;;;;;;5009171;28;20454;-72
2022/09/26 11:35:02;;;;;;;2.97;2.00;;;15.90;70.20;;;;;;5005412;28;20556;-72
2022/09/26 11:37:40;;;;;;;4.20;2.10;;;16.20;66.10;;;;;;4999661;28;20535;-71
2022/09/26 11:40:16;;;;;;;2.17;1.90;;;16.80;64.40;;;;;;4996857;28;20408;-70
2022/09/26 11:42:45;;;;;;;2.97;1.83;;;17.30;62.30;;;;;;5001067;28;20523;-71
2022/09/26 11:45:30;;;;;;;3.57;2.23;;;17.70;60.30;;;;;;5006592;28;20831;-70
2022/09/26 11:48:20;;;;;;;2.87;1.63;;;17.70;61.50;;;;;;5002823;28;20461;-72
2022/09/26 11:51:11;;;;;;;4.73;1.50;;;17.70;61.70;;;;;;4988855;28;20432;-73
2022/09/26 11:53:45;;;;;;;3.17;1.90;;;17.80;59.50;;;;;;5001707;28;20832;-71
2022/09/26 11:56:13;;;;;;;2.27;1.50;;;17.80;59.10;;;;;;4984744;28;20474;-71
2022/09/26 11:58:44;;;;;;;4.00;2.00;;;17.90;59.60;;;;;;4997437;28;20475;-71
2022/09/26 12:01:39;;;;;;;2.93;1.80;;;17.90;59.60;;;;;;5002224;28;20864;-72
2022/09/26 12:04:32;;;;;;;2.07;1.40;;;17.70;60.30;;;;;;4997773;28;20858;-72
2022/09/26 12:07:06;;;;;;;7.50;1.90;;;17.30;61.30;;;;;;4997044;28;21007;-71
2022/09/26 12:10:15;;;;;;;3.83;1.90;;;17.00;61.70;;;;;;5007340;28;20407;-72
2022/09/26 12:13:16;;;;;;;2.50;1.63;;;16.00;68.50;;;;;;5003928;28;20425;-72
2022/09/26 12:16:08;;;;;;;3.33;1.53;;;14.80;73.90;;;;;;5003202;28;20468;-72
2022/09/26 12:18:42;;;;;;;4.17;2.23;;;14.00;77.00;;;;;;5003470;28;20461;-72
2022/09/26 12:21:31;;;;;;;3.60;2.10;;;13.60;80.30;;;;;;5000343;28;20515;-72
2022/09/26 12:24:12;;;;;;;6.60;2.50;;;13.40;83.00;;;;;;5002892;28;21007;-71
2022/09/26 12:27:05;;;;;;;5.03;2.20;;;13.40;84.30;;;;;;4997403;28;20987;-72
2022/09/26 12:29:48;;;;;;;6.40;2.10;;;13.70;84.70;;;;;;5008130;28;20416;-72
2022/09/26 12:32:45;;;;;;;3.33;2.40;;;14.10;81.90;;;;;;5009414;28;20413;-72
2022/09/26 12:35:52;;;;;;;4.80;2.30;;;14.60;79.50;;;;;;5009089;28;20467;-71
2022/09/26 12:38:19;;;;;;;3.50;2.30;;;15.20;76.40;;;;;;5004099;28;20425;-72
2022/09/26 12:40:52;;;;;;;5.23;2.47;;;15.50;75.40;;;;;;4991797;28;20428;-72
2022/09/26 12:43:37;;;;;;;7.90;2.23;;;15.70;73.90;;;;;;4995120;28;20428;-71
2022/09/26 12:46:32;;;;;;;3.20;2.33;;;15.90;73.20;;;;;;4993308;28;20420;-72
2022/09/26 12:49:22;;;;;;;5.60;2.50;;;15.90;71.10;;;;;;4992938;28;20452;-72
2022/09/26 12:51:52;;;;;;;5.43;2.30;;;16.10;70.70;;;;;;5004374;28;20527;-72
2022/09/26 12:54:18;;;;;;;3.20;1.67;;;16.20;69.80;;;;;;5009582;28;20421;-72
2022/09/26 12:57:04;;;;;;;2.27;1.47;;;16.20;67.00;;;;;;5007722;28;20484;-72
2022/09/26 13:00:10;;;;;;;5.30;1.77;;;16.20;67.20;;;;;;4994690;28;20209;-72
2022/09/26 13:02:54;;;;;;;3.47;1.63;;;16.10;65.80;;;;;;5005289;28;20427;-73
2022/09/26 13:05:37;;;;;;;8.17;1.97;;;16.00;66.70;;;;;;5006212;28;20421;-72
2022/09/26 13:08:30;;;;;;;4.20;1.53;;;16.00;67.70;;;;;;5004560;28;20523;-72
2022/09/26 13:11:11;;;;;;;6.00;1.60;;;15.70;65.60;;;;;;5009644;28;20841;-72
2022/09/26 13:13:50;;;;;;;2.30;1.50;;;15.60;67.30;;;;;;5006157;28;20431;-71
2022/09/26 13:16:30;;;;;;;4.67;1.80;;;15.50;68.30;;;;;;5002426;28;20471;-72
2022/09/26 13:19:14;;;;;;;2.80;1.47;;;15.40;67.90;;;;;;5006022;28;20420;-76
2022/09/26 13:21:53;;;;;;;1.93;1.10;;;15.20;67.70;;;;;;5008171;28;20436;-74
2022/09/26 13:24:30;;;;;;;1.77;1.10;;;15.00;67.00;;;;;;5002881;28;20405;-75
2022/09/26 13:27:33;;;;;;;5.97;1.20;;;15.00;67.20;;;;;;5002927;28;20456;-75